createdAt,value
2022-09-16T00:00:43.372Z,146015.41
2022-09-16T00:03:11.748Z,146072.63
2022-09-16T00:05:47.654Z,146064.09
2022-09-16T00:08:15.523Z,146037.31
2022-09-16T00:10:43.901Z,146065.31
2022-09-16T00:13:12.785Z,146093.31
2022-09-16T00:15:49.084Z,146081.19
2022-09-16T00:18:16.079Z,146090.91
2022-09-16T00:20:51.836Z,146082.38
2022-09-16T00:23:19.906Z,146078.72
2022-09-16T00:25:52.470Z,146070.16
2022-09-16T00:28:21.683Z,146059.22
2022-09-16T00:30:49.637Z,146081.19
2022-09-16T00:33:17.429Z,146038.53
2022-09-16T00:35:44.450Z,146124.97
2022-09-16T00:38:11.550Z,146160.25
2022-09-16T00:40:49.749Z,146169.97
2022-09-16T00:43:19.117Z,146163.91
2022-09-16T00:45:55.397Z,146151.72
2022-09-16T00:48:25.767Z,146094.53
2022-09-16T00:51:05.067Z,146129.81
2022-09-16T00:53:42.888Z,146132.28
2022-09-16T00:56:13.072Z,146139.56
2022-09-16T00:58:48.483Z,146068.97
2022-09-16T01:01:15.622Z,146124.97
2022-09-16T01:03:51.568Z,146105.50
2022-09-16T01:06:19.361Z,146076.28
2022-09-16T01:08:46.459Z,146154.19
2022-09-16T01:11:13.584Z,146169.97
2022-09-16T01:13:42.259Z,146073.81
2022-09-16T01:16:16.310Z,146135.94
2022-09-16T01:18:52.125Z,146171.19
2022-09-16T01:21:31.314Z,146171.19
2022-09-16T01:24:40.938Z,146190.69
2022-09-16T01:27:30.133Z,146166.31
2022-09-16T01:30:12.144Z,146168.78
2022-09-16T01:32:39.113Z,146148.06
2022-09-16T01:35:25.562Z,146150.53
2022-09-16T01:38:02.340Z,146120.09
2022-09-16T01:40:39.178Z,146161.47
2022-09-16T01:43:25.361Z,146066.50
2022-09-16T01:46:00.123Z,146171.19
2022-09-16T01:48:39.565Z,146156.59
2022-09-16T01:51:14.875Z,146134.69
2022-09-16T01:53:44.269Z,146185.78
2022-09-16T01:56:22.798Z,146168.78
2022-09-16T01:58:59.077Z,146180.91
2022-09-16T02:02:03.707Z,146171.19
2022-09-16T02:04:40.277Z,146161.47
2022-09-16T02:07:10.890Z,146159.06
2022-09-16T02:09:43.514Z,146071.38
2022-09-16T02:12:13.181Z,146146.88
2022-09-16T02:14:43.650Z,146154.19
2022-09-16T02:17:14.783Z,146110.38
2022-09-16T02:19:51.958Z,146149.28
2022-09-16T02:22:36.442Z,146160.25
2022-09-16T02:25:05.765Z,146127.41
2022-09-16T02:27:36.426Z,146110.38
2022-09-16T02:30:08.386Z,146095.78
2022-09-16T02:32:39.834Z,146103.06
2022-09-16T02:35:12.193Z,146095.78
2022-09-16T02:37:45.167Z,146056.78
2022-09-16T02:40:36.176Z,146081.19
2022-09-16T02:43:03.892Z,146127.41
2022-09-16T02:45:44.237Z,146088.47
2022-09-16T02:48:39.662Z,146015.41
2022-09-16T02:51:29.221Z,146082.38
2022-09-16T02:54:06.479Z,146059.22
2022-09-16T02:56:40.514Z,146068.97
2022-09-16T02:59:11.672Z,146062.91
2022-09-16T03:01:42.960Z,146066.50
2022-09-16T03:04:12.410Z,146064.09
2022-09-16T03:06:39.603Z,146041.00
2022-09-16T03:09:09.592Z,145998.38
2022-09-16T03:11:57.615Z,146039.75
2022-09-16T03:14:43.056Z,146072.63
2022-09-16T03:17:22.756Z,146068.97
2022-09-16T03:20:20.449Z,146098.19
2022-09-16T03:22:47.442Z,146061.63
2022-09-16T03:25:41.711Z,146059.22
2022-09-16T03:28:41.187Z,146064.09
2022-09-16T03:31:13.086Z,146082.38
2022-09-16T03:33:53.369Z,146042.19
2022-09-16T03:36:26.064Z,146051.91
2022-09-16T03:38:54.154Z,146045.84
2022-09-16T03:41:21.203Z,146079.94
2022-09-16T03:43:54.577Z,146083.59
2022-09-16T03:46:21.884Z,146066.50
2022-09-16T03:48:48.769Z,146071.38
2022-09-16T03:51:15.881Z,146057.97
2022-09-16T03:53:42.692Z,146084.81
2022-09-16T03:56:09.520Z,146071.38
2022-09-16T03:58:36.347Z,146096.97
2022-09-16T04:01:03.730Z,146079.94
2022-09-16T04:03:33.473Z,146081.19
2022-09-16T04:06:00.453Z,146109.16
2022-09-16T04:08:27.279Z,146078.72
2022-09-16T04:10:57.952Z,146075.03
2022-09-16T04:13:25.197Z,146056.78
2022-09-16T04:15:52.026Z,146068.97
2022-09-16T04:18:18.877Z,146054.38
2022-09-16T04:20:45.799Z,146044.66
2022-09-16T04:23:12.859Z,146044.66
2022-09-16T04:25:40.940Z,146062.91
2022-09-16T04:28:08.038Z,146078.72
2022-09-16T04:30:36.194Z,146068.97
2022-09-16T04:33:03.105Z,146088.47
2022-09-16T04:35:30.846Z,146047.06
2022-09-16T04:37:57.645Z,146051.91
2022-09-16T04:40:24.919Z,146017.88
2022-09-16T04:42:51.811Z,146016.63
2022-09-16T04:45:19.011Z,146039.75
2022-09-16T04:47:45.830Z,145930.28
2022-09-16T04:50:12.628Z,146003.25
2022-09-16T04:52:39.448Z,145978.94
2022-09-16T04:55:06.392Z,145959.50
2022-09-16T04:57:33.232Z,145940.03
2022-09-16T05:00:00.047Z,145949.78
2022-09-16T05:02:28.556Z,145937.59
2022-09-16T05:04:55.514Z,145935.19
2022-09-16T05:07:22.342Z,145949.78
2022-09-16T05:09:49.123Z,145918.16
2022-09-16T05:12:15.943Z,145942.44
2022-09-16T05:14:42.758Z,145949.78
2022-09-16T05:17:09.577Z,145927.88
2022-09-16T05:19:36.373Z,145918.16
2022-09-16T05:22:07.059Z,145898.69
2022-09-16T05:24:35.063Z,145933.94
2022-09-16T05:27:01.969Z,145910.84
2022-09-16T05:29:28.767Z,145905.97
2022-09-16T05:31:55.587Z,145915.69
2022-09-16T05:34:23.194Z,145895.03
2022-09-16T05:36:50.680Z,145916.94
2022-09-16T05:39:23.808Z,145918.16
2022-09-16T05:41:58.994Z,145896.25
2022-09-16T05:44:26.533Z,145888.94
2022-09-16T05:46:53.756Z,145927.88
2022-09-16T05:49:21.172Z,145920.56
2022-09-16T05:51:48.620Z,145919.34
2022-09-16T05:54:15.688Z,145930.28
2022-09-16T05:56:42.637Z,145921.81
2022-09-16T05:59:10.765Z,145896.25
2022-09-16T06:01:37.648Z,145898.69
2022-09-16T06:04:06.336Z,145903.56
2022-09-16T06:06:40.397Z,145908.44
2022-09-16T06:09:11.565Z,145903.56
2022-09-16T06:11:42.577Z,145912.03
2022-09-16T06:14:09.757Z,145926.66
2022-09-16T06:16:37.054Z,145952.19
2022-09-16T06:19:05.302Z,145965.56
2022-09-16T06:21:32.336Z,145985.00
2022-09-16T06:23:59.117Z,145995.97
2022-09-16T06:26:26.514Z,145902.31
2022-09-16T06:28:53.348Z,146034.88
2022-09-16T06:31:21.826Z,146068.97
2022-09-16T06:33:50.412Z,146071.38
2022-09-16T06:36:18.543Z,146128.63
2022-09-16T06:38:46.264Z,146155.41
2022-09-16T06:41:14.318Z,146176.06
2022-09-16T06:43:41.260Z,146188.25
2022-09-16T06:46:13.264Z,146199.19
2022-09-16T06:48:41.102Z,146244.22
2022-09-16T06:51:10.178Z,146322.13
2022-09-16T06:53:37.216Z,146314.84
2022-09-16T06:56:06.556Z,146295.31
2022-09-16T06:58:34.082Z,146325.78
2022-09-16T07:01:08.024Z,146335.50
2022-09-16T07:03:39.022Z,146317.25
2022-09-16T07:06:05.999Z,146348.91
2022-09-16T07:08:33.215Z,146392.75
2022-09-16T07:11:01.156Z,146390.31
2022-09-16T07:13:28.197Z,146412.28
2022-09-16T07:16:12.337Z,146434.19
2022-09-16T07:18:40.533Z,146487.81
2022-09-16T07:21:07.378Z,146524.34
2022-09-16T07:23:35.061Z,146480.47
2022-09-16T07:26:01.838Z,146459.75
2022-09-16T07:28:28.926Z,146509.69
2022-09-16T07:30:55.767Z,146529.22
2022-09-16T07:33:22.685Z,146581.56
2022-09-16T07:35:49.455Z,146563.31
2022-09-16T07:38:16.265Z,146603.50
2022-09-16T07:40:43.117Z,146563.31
2022-09-16T07:43:10.189Z,146564.50
2022-09-16T07:45:37.059Z,146566.97
2022-09-16T07:48:04.006Z,146513.34
2022-09-16T07:50:30.816Z,146545.03
2022-09-16T07:52:57.606Z,146541.38
2022-09-16T07:55:24.407Z,146507.28
2022-09-16T07:57:51.249Z,146491.41
2022-09-16T08:00:18.117Z,146436.63
2022-09-16T08:02:45.079Z,146402.50
2022-09-16T08:05:13.250Z,146373.28
2022-09-16T08:07:40.192Z,146357.44
2022-09-16T08:10:07.226Z,146412.28
2022-09-16T08:12:35.333Z,146431.75
2022-09-16T08:15:02.495Z,146482.94
2022-09-16T08:17:32.031Z,146629.13
2022-09-16T08:20:00.398Z,146658.34
2022-09-16T08:22:27.215Z,146648.59
2022-09-16T08:24:54.038Z,146562.09
2022-09-16T08:27:20.859Z,146512.16
2022-09-16T08:29:47.924Z,146559.63
2022-09-16T08:32:14.953Z,146616.91
2022-09-16T08:34:41.834Z,146692.44
2022-09-16T08:37:09.196Z,146697.31
2022-09-16T08:39:36.084Z,146666.88
2022-09-16T08:42:09.506Z,146610.84
2022-09-16T08:45:00.295Z,146599.84
2022-09-16T08:47:27.555Z,146521.88
2022-09-16T08:49:55.868Z,146524.34
2022-09-16T08:52:38.985Z,146542.63
2022-09-16T08:55:10.456Z,146543.81
2022-09-16T08:57:42.853Z,146594.97
2022-09-16T09:00:14.142Z,146648.59
2022-09-16T09:02:56.495Z,146704.66
2022-09-16T09:05:36.337Z,146785.16
2022-09-16T09:08:17.321Z,146804.66
2022-09-16T09:11:03.352Z,146786.34
2022-09-16T09:13:39.691Z,146830.25
2022-09-16T09:16:25.251Z,146763.19
2022-09-16T09:18:58.124Z,146738.84
2022-09-16T09:21:31.755Z,146705.84
2022-09-16T09:24:04.999Z,146685.16
2022-09-16T09:26:49.717Z,146702.22
2022-09-16T09:29:24.813Z,146675.41
2022-09-16T09:31:54.806Z,146615.72
2022-09-16T09:34:27.921Z,146577.91
2022-09-16T09:37:17.435Z,146597.44
2022-09-16T09:39:59.704Z,146575.50
2022-09-16T09:42:26.611Z,146629.13
2022-09-16T09:45:04.577Z,146659.56
2022-09-16T09:47:35.696Z,146680.28
2022-09-16T09:50:10.597Z,146777.81
2022-09-16T09:52:45.921Z,146888.75
2022-09-16T09:55:20.683Z,146941.22
2022-09-16T09:57:53.529Z,146987.59
2022-09-16T10:00:23.073Z,146991.25
2022-09-16T10:02:50.267Z,146933.88
2022-09-16T10:05:27.992Z,146913.16
2022-09-16T10:08:07.067Z,146918.03
2022-09-16T10:10:34.437Z,146875.34
2022-09-16T10:13:10.870Z,147036.41
2022-09-16T10:15:38.029Z,147119.34
2022-09-16T10:18:13.165Z,147108.34
2022-09-16T10:20:42.185Z,147058.31
2022-09-16T10:23:29.703Z,147003.44
2022-09-16T10:26:16.425Z,147018.09
2022-09-16T10:28:53.285Z,147011.97
2022-09-16T10:31:20.255Z,146987.59
2022-09-16T10:33:48.092Z,146997.34
2022-09-16T10:36:22.530Z,146982.69
2022-09-16T10:39:03.935Z,147053.44
2022-09-16T10:41:33.827Z,147051.03
2022-09-16T10:44:02.267Z,147063.19
2022-09-16T10:46:29.983Z,147068.06
2022-09-16T10:49:01.881Z,147046.16
2022-09-16T10:51:31.392Z,147010.78
2022-09-16T10:53:59.951Z,147052.25
2022-09-16T10:56:31.842Z,147060.78
2022-09-16T10:59:08.428Z,147075.41
2022-09-16T11:01:48.486Z,147096.16
2022-09-16T11:04:28.022Z,147065.66
2022-09-16T11:06:54.813Z,147063.19
2022-09-16T11:09:40.492Z,147094.91
2022-09-16T11:12:13.154Z,147129.09
2022-09-16T11:14:51.485Z,147160.84
2022-09-16T11:17:25.293Z,147122.97
2022-09-16T11:20:11.062Z,147218.16
2022-09-16T11:22:37.823Z,147276.81
2022-09-16T11:25:40.247Z,147302.47
2022-09-16T11:28:25.349Z,147331.72
2022-09-16T11:31:12.991Z,147391.56
2022-09-16T11:33:58.701Z,147464.81
2022-09-16T11:36:45.799Z,147445.28
2022-09-16T11:39:21.112Z,147418.44
2022-09-16T11:41:48.238Z,147357.38
2022-09-16T11:44:15.829Z,147387.88
2022-09-16T11:46:42.644Z,147324.41
2022-09-16T11:49:19.405Z,147346.38
2022-09-16T11:52:05.042Z,147315.88
2022-09-16T11:54:47.014Z,147234.06
2022-09-16T11:57:16.510Z,147163.25
2022-09-16T11:59:43.279Z,147091.28
2022-09-16T12:02:25.512Z,146980.22
2022-09-16T12:05:03.037Z,146841.22
2022-09-16T12:07:38.389Z,146785.16
2022-09-16T12:10:25.013Z,146738.84
2022-09-16T12:12:56.580Z,146726.63
2022-09-16T12:15:28.241Z,146700.97
2022-09-16T12:18:01.142Z,146687.56
2022-09-16T12:20:29.858Z,146726.63
2022-09-16T12:23:04.094Z,146719.31
2022-09-16T12:25:35.617Z,146709.50
2022-09-16T12:28:23.498Z,146685.16
2022-09-16T12:30:55.742Z,146749.78
2022-09-16T12:33:26.708Z,146772.94
2022-09-16T12:36:01.384Z,146799.78
2022-09-16T12:38:28.369Z,146814.41
2022-09-16T12:41:14.083Z,146835.13
2022-09-16T12:43:40.917Z,146799.78
2022-09-16T12:46:22.583Z,146836.34
2022-09-16T12:49:08.877Z,146814.41
2022-09-16T12:51:35.636Z,146738.84
2022-09-16T12:54:02.448Z,146770.50
2022-09-16T12:56:35.398Z,146791.22
2022-09-16T12:59:17.958Z,146738.84
2022-09-16T13:01:48.230Z,146753.47
2022-09-16T13:04:17.491Z,146751.00
2022-09-16T13:06:46.509Z,146672.97
2022-09-16T13:09:23.774Z,146655.88
2022-09-16T13:12:37.795Z,146636.41
2022-09-16T13:14:48.430Z,146621.78
2022-09-16T13:17:15.353Z,146636.41
2022-09-16T13:19:47.908Z,146601.06
2022-09-16T13:22:22.960Z,146590.09
2022-09-16T13:24:53.287Z,146634.00
2022-09-16T13:27:29.017Z,146712.03
2022-09-16T13:30:07.424Z,146833.88
2022-09-16T13:32:39.139Z,146909.50
2022-09-16T13:35:18.176Z,146913.16
2022-09-16T13:37:45.856Z,146885.13
2022-09-16T13:40:20.385Z,146807.06
2022-09-16T13:42:47.379Z,146738.84
2022-09-16T13:45:30.429Z,146752.22
2022-09-16T13:47:57.623Z,146709.50
2022-09-16T13:50:25.487Z,146714.44
2022-09-16T13:52:53.005Z,146729.06
2022-09-16T13:55:25.337Z,146719.31
2022-09-16T13:58:10.720Z,146682.69
2022-09-16T14:00:37.588Z,146649.81
2022-09-16T14:03:13.686Z,146651.00
2022-09-16T14:05:59.097Z,146619.34
2022-09-16T14:08:32.077Z,146596.19
2022-09-16T14:11:04.778Z,146620.59
2022-09-16T14:13:36.473Z,146616.91
2022-09-16T14:16:03.698Z,146638.84
2022-09-16T14:18:31.753Z,146554.75
2022-09-16T14:20:58.569Z,146547.47
2022-09-16T14:23:25.691Z,146531.63
2022-09-16T14:25:55.585Z,146558.44
2022-09-16T14:28:27.410Z,146517.00
2022-09-16T14:30:58.381Z,146542.63
2022-09-16T14:33:28.545Z,146497.53
2022-09-16T14:35:56.712Z,146481.69
2022-09-16T14:38:45.105Z,146529.22
2022-09-16T14:41:17.850Z,146571.84
2022-09-16T14:43:44.660Z,146564.50
2022-09-16T14:46:11.502Z,146577.91
2022-09-16T14:48:38.946Z,146565.75
2022-09-16T14:51:13.422Z,146521.88
2022-09-16T14:53:42.591Z,146507.28
2022-09-16T14:56:21.849Z,146524.34
2022-09-16T14:58:49.578Z,146576.69
2022-09-16T15:01:21.117Z,146599.84
2022-09-16T15:03:52.450Z,146580.38
2022-09-16T15:06:21.145Z,146612.03
2022-09-16T15:08:51.066Z,146586.44
2022-09-16T15:11:45.965Z,146592.56
2022-09-16T15:14:08.328Z,146585.22
2022-09-16T15:16:40.334Z,146563.31
2022-09-16T15:19:07.165Z,146537.75
2022-09-16T15:21:35.207Z,146520.69
2022-09-16T15:24:03.828Z,146515.81
2022-09-16T15:26:46.993Z,146485.34
2022-09-16T15:29:26.991Z,146480.47
2022-09-16T15:31:54.915Z,146529.22
2022-09-16T15:34:23.221Z,146535.28
2022-09-16T15:36:57.757Z,146566.97
2022-09-16T15:39:28.294Z,146620.59
2022-09-16T15:42:07.264Z,146702.22
2022-09-16T15:44:37.426Z,146685.16
2022-09-16T15:47:04.879Z,146665.66
2022-09-16T15:49:36.355Z,146716.91
2022-09-16T15:52:08.700Z,146833.88
2022-09-16T15:54:37.862Z,147087.63
2022-09-16T15:57:09.560Z,146982.69
2022-09-16T15:59:46.577Z,146818.06
2022-09-16T16:02:22.298Z,146753.47
2022-09-16T16:04:49.756Z,146975.34
2022-09-16T16:07:36.508Z,147192.56
2022-09-16T16:10:20.670Z,147350.03
2022-09-16T16:12:51.365Z,147585.81
2022-09-16T16:15:22.389Z,147624.88
2022-09-16T16:17:49.653Z,147580.88
2022-09-16T16:20:17.776Z,147497.84
2022-09-16T16:22:45.090Z,147280.47
2022-09-16T16:25:12.851Z,147287.78
2022-09-16T16:27:40.037Z,147365.94
2022-09-16T16:30:07.222Z,147494.22
2022-09-16T16:32:34.997Z,147677.44
2022-09-16T16:35:01.792Z,147524.72
2022-09-16T16:37:46.928Z,147208.41
2022-09-16T16:40:15.877Z,146971.66
2022-09-16T16:42:43.861Z,146872.91
2022-09-16T16:45:12.070Z,146871.72
2022-09-16T16:47:39.505Z,146811.97
2022-09-16T16:50:06.459Z,146714.44
2022-09-16T16:52:33.292Z,146621.78
2022-09-16T16:55:00.067Z,146599.84
2022-09-16T16:57:26.861Z,146612.03
2022-09-16T16:59:53.647Z,146536.50
2022-09-16T17:02:20.594Z,146439.06
2022-09-16T17:04:47.456Z,146390.31
2022-09-16T17:07:25.729Z,146348.91
2022-09-16T17:09:53.832Z,146353.78
2022-09-16T17:12:20.691Z,146339.16
2022-09-16T17:14:47.596Z,146281.97
2022-09-16T17:17:14.438Z,146212.56
2022-09-16T17:19:41.238Z,146275.84
2022-09-16T17:22:08.073Z,146263.72
2022-09-16T17:24:35.185Z,146197.97
2022-09-16T17:27:02.156Z,146212.56
2022-09-16T17:29:29.141Z,146217.44
2022-09-16T17:32:00.652Z,146179.72
2022-09-16T17:34:27.560Z,146176.06
2022-09-16T17:36:54.587Z,146160.25
2022-09-16T17:39:22.369Z,146142.00
2022-09-16T17:41:49.789Z,146137.13
2022-09-16T17:44:17.232Z,146135.94
2022-09-16T17:46:44.501Z,146137.13
2022-09-16T17:49:16.542Z,146161.47
2022-09-16T17:51:43.754Z,146155.41
2022-09-16T17:54:10.988Z,146133.47
2022-09-16T17:56:37.877Z,146121.28
2022-09-16T17:59:05.134Z,146139.56
2022-09-16T18:01:32.093Z,146132.28
2022-09-16T18:03:59.039Z,146118.88
2022-09-16T18:06:30.855Z,146017.88
2022-09-16T18:09:01.315Z,146056.78
2022-09-16T18:11:28.377Z,146076.28
2022-09-16T18:13:56.348Z,146076.28
2022-09-16T18:16:23.660Z,146060.44
2022-09-16T18:18:51.990Z,146084.81
2022-09-16T18:21:19.719Z,146087.25
2022-09-16T18:23:49.785Z,146105.50
2022-09-16T18:26:18.667Z,146124.97
2022-09-16T18:29:08.567Z,146084.81
2022-09-16T18:31:34.854Z,146088.47
2022-09-16T18:34:01.650Z,146075.03
2022-09-16T18:36:30.091Z,146068.97
2022-09-16T18:38:58.190Z,146051.91
2022-09-16T18:41:29.342Z,146051.91
2022-09-16T18:44:00.551Z,146028.81
2022-09-16T18:46:31.584Z,146042.19
2022-09-16T18:48:59.067Z,146039.75
2022-09-16T18:51:27.811Z,146057.97
2022-09-16T18:53:56.420Z,146002.03
2022-09-16T18:56:24.368Z,146034.88
2022-09-16T18:59:17.198Z,146038.53
2022-09-16T19:01:39.757Z,146025.16
2022-09-16T19:04:08.373Z,146037.31
2022-09-16T19:06:37.030Z,146009.34
2022-09-16T19:09:06.553Z,146027.59
2022-09-16T19:11:33.870Z,145981.38
2022-09-16T19:14:01.136Z,145983.81
2022-09-16T19:16:28.451Z,145954.63
2022-09-16T19:18:56.069Z,145969.22
2022-09-16T19:21:23.537Z,145904.78
2022-09-16T19:23:58.684Z,145910.84
2022-09-16T19:26:26.528Z,145888.94
2022-09-16T19:28:53.408Z,145852.47
2022-09-16T19:31:20.617Z,145750.38
2022-09-16T19:33:47.993Z,145876.81
2022-09-16T19:36:14.983Z,145879.22
2022-09-16T19:38:42.584Z,145890.19
2022-09-16T19:41:09.978Z,145905.97
2022-09-16T19:43:37.494Z,145925.41
2022-09-16T19:46:06.150Z,145852.47
2022-09-16T19:48:34.485Z,145846.41
2022-09-16T19:51:01.470Z,145847.59
2022-09-16T19:53:28.439Z,145884.06
2022-09-16T19:56:15.037Z,145884.06
2022-09-16T19:58:42.091Z,145908.44
2022-09-16T20:01:25.872Z,145937.59
2022-09-16T20:03:53.149Z,145952.19
2022-09-16T20:06:21.086Z,145936.38
2022-09-16T20:08:49.258Z,145952.19
2022-09-16T20:11:18.600Z,145959.50
2022-09-16T20:13:49.357Z,145940.03
2022-09-16T20:16:16.497Z,146000.84
2022-09-16T20:18:43.372Z,146005.69
2022-09-16T20:21:11.650Z,146021.50
2022-09-16T20:23:40.009Z,146002.03
2022-09-16T20:26:08.017Z,146055.56
2022-09-16T20:28:36.248Z,146047.06
2022-09-16T20:31:04.244Z,146059.22
2022-09-16T20:33:33.595Z,146025.16
2022-09-16T20:36:04.526Z,146042.19
2022-09-16T20:38:31.342Z,145998.38
2022-09-16T20:41:03.273Z,146016.63
2022-09-16T20:43:30.348Z,145989.91
2022-09-16T20:46:02.644Z,145968.00
2022-09-16T20:48:29.489Z,146000.84
2022-09-16T20:50:56.292Z,146021.50
2022-09-16T20:53:23.158Z,146005.69
2022-09-16T20:55:49.950Z,146000.84
2022-09-16T20:58:16.778Z,145976.53
2022-09-16T21:00:43.639Z,145981.38
2022-09-16T21:03:12.114Z,145941.25
2022-09-16T21:05:39.163Z,145949.78
2022-09-16T21:08:06.622Z,145923.00
2022-09-16T21:10:36.038Z,145949.78
2022-09-16T21:13:04.342Z,145905.97
2022-09-16T21:15:31.632Z,145942.44
2022-09-16T21:17:58.513Z,145933.94
2022-09-16T21:20:25.390Z,145952.19
2022-09-16T21:22:53.416Z,145944.91
2022-09-16T21:25:20.365Z,145920.56
2022-09-16T21:27:47.254Z,145935.19
2022-09-16T21:30:14.519Z,145932.72
2022-09-16T21:32:43.084Z,145918.16
2022-09-16T21:35:10.266Z,145886.53
2022-09-16T21:37:37.072Z,145923.00
2022-09-16T21:40:04.257Z,145918.16
2022-09-16T21:42:31.466Z,145923.00
2022-09-16T21:44:59.831Z,145930.28
2022-09-16T21:47:26.852Z,145925.41
2022-09-16T21:49:53.985Z,145912.03
2022-09-16T21:52:20.968Z,145921.81
2022-09-16T21:54:47.776Z,145915.69
2022-09-16T21:57:15.121Z,145923.00
2022-09-16T21:59:41.922Z,145927.88
2022-09-16T22:02:08.902Z,145913.28
2022-09-16T22:04:35.769Z,145884.06
2022-09-16T22:07:02.630Z,145891.38
2022-09-16T22:09:29.725Z,145929.06
2022-09-16T22:11:56.667Z,145937.59
2022-09-16T22:14:23.880Z,145920.56
2022-09-16T22:16:50.766Z,145868.28
2022-09-16T22:19:18.540Z,145887.72
2022-09-16T22:21:50.188Z,145910.84
2022-09-16T22:24:20.085Z,145882.88
2022-09-16T22:26:49.670Z,145903.56
2022-09-16T22:29:16.915Z,145878.00
2022-09-16T22:31:43.791Z,145886.53
2022-09-16T22:34:10.765Z,145893.78
2022-09-16T22:36:38.570Z,145897.44
2022-09-16T22:39:07.145Z,145874.34
2022-09-16T22:41:34.452Z,145871.94
2022-09-16T22:44:01.622Z,145903.56
2022-09-16T22:46:29.707Z,145910.84
2022-09-16T22:48:57.712Z,145869.50
2022-09-16T22:51:25.595Z,145905.97
2022-09-16T22:53:53.174Z,145925.41
2022-09-16T22:56:33.671Z,145881.66
2022-09-16T22:59:05.551Z,145875.56
2022-09-16T23:01:34.799Z,145871.94
2022-09-16T23:04:03.082Z,145875.56
2022-09-16T23:06:30.995Z,145870.69
2022-09-16T23:08:57.938Z,145852.47
2022-09-16T23:11:26.907Z,145829.38
2022-09-16T23:13:54.794Z,145823.31
2022-09-16T23:16:23.543Z,145824.50
2022-09-16T23:18:50.567Z,145830.63
2022-09-16T23:21:18.981Z,145837.88
2022-09-16T23:23:48.369Z,145830.63
2022-09-16T23:26:16.548Z,145831.81
2022-09-16T23:28:43.950Z,145825.75
2022-09-16T23:31:12.509Z,145823.31
2022-09-16T23:33:39.829Z,145806.28
2022-09-16T23:36:07.310Z,145786.84
2022-09-16T23:38:35.996Z,145803.88
2022-09-16T23:41:08.043Z,145820.84
2022-09-16T23:43:35.072Z,145789.28
2022-09-16T23:46:02.913Z,145818.44
2022-09-16T23:48:30.853Z,145794.16
2022-09-16T23:50:59.127Z,145762.53
2022-09-16T23:53:26.644Z,145784.38
2022-09-16T23:55:53.476Z,145755.22
2022-09-16T23:58:20.477Z,145774.66
